Time;durP1;ratioP1;P1;durP2;ratioP2;P2;SDS_P1;SDS_P2;PMS_P1;PMS_P2;Temp;Humidity;BMP_temperature;BMP_pressure;BME280_temperature;BME280_humidity;BME280_pressure;Samples;Min_cycle;Max_cycle;Signal;HPM_P1;HPM_P2
2024/01/15 00:02:20;;;;;;;1.20;1.20;;;2.90;84.00;;;;;;4990335;28;20038;-70
2024/01/15 00:04:46;;;;;;;0.00;0.00;;;2.90;84.40;;;;;;4987047;28;20046;-70
2024/01/15 00:07:12;;;;;;;0.22;0.22;;;2.90;84.70;;;;;;4987691;28;20100;-70
2024/01/15 00:09:39;;;;;;;0.03;0.03;;;2.90;85.10;;;;;;4994357;28;20709;-70
2024/01/15 00:12:06;;;;;;;0.05;0.05;;;2.90;85.20;;;;;;4969564;28;20586;-70
2024/01/15 00:14:31;;;;;;;0.47;0.47;;;2.90;85.40;;;;;;4987984;28;20075;-70
2024/01/15 00:16:57;;;;;;;2.40;1.25;;;2.90;85.70;;;;;;4987854;28;20051;-70
2024/01/15 00:19:23;;;;;;;0.00;0.00;;;2.90;85.60;;;;;;4982247;28;20043;-70
2024/01/15 00:21:49;;;;;;;2.53;0.65;;;2.90;85.60;;;;;;4986941;28;20054;-70
2024/01/15 00:24:15;;;;;;;0.00;0.00;;;2.90;85.70;;;;;;4988245;28;20046;-70
2024/01/15 00:26:41;;;;;;;0.00;0.00;;;3.00;85.70;;;;;;4987555;28;20042;-70
2024/01/15 00:29:08;;;;;;;0.10;0.10;;;3.10;85.70;;;;;;4987208;28;20061;-70
2024/01/15 00:31:33;;;;;;;0.00;0.00;;;3.10;85.90;;;;;;4988579;28;20126;-70
2024/01/15 00:33:59;;;;;;;0.10;0.10;;;3.20;85.90;;;;;;4988083;28;20460;-70
2024/01/15 00:36:25;;;;;;;0.10;0.10;;;3.30;85.60;;;;;;4988599;28;20543;-69
2024/01/15 00:38:51;;;;;;;0.00;0.00;;;3.30;86.00;;;;;;4987496;28;20078;-70
2024/01/15 00:41:18;;;;;;;0.00;0.00;;;3.20;85.70;;;;;;4988259;28;20105;-70
2024/01/15 00:43:45;;;;;;;0.00;0.00;;;3.30;85.80;;;;;;4987446;28;20072;-70
2024/01/15 00:46:11;;;;;;;0.00;0.00;;;3.30;85.70;;;;;;4986829;28;20035;-68
2024/01/15 00:48:37;;;;;;;0.00;0.00;;;3.20;86.00;;;;;;4986239;28;20431;-68
2024/01/15 00:51:04;;;;;;;0.00;0.00;;;3.20;86.10;;;;;;4986768;28;20045;-69
2024/01/15 00:53:30;;;;;;;0.10;0.10;;;3.30;86.00;;;;;;4985034;28;20050;-69
2024/01/15 00:55:55;;;;;;;0.00;0.00;;;3.30;86.40;;;;;;4986538;28;20057;-71
2024/01/15 00:58:21;;;;;;;0.00;0.00;;;3.10;86.80;;;;;;4992777;28;20145;-70
2024/01/15 01:00:47;;;;;;;0.00;0.00;;;2.90;87.40;;;;;;5005596;28;20041;-70
2024/01/15 01:03:12;;;;;;;0.00;0.00;;;2.70;87.70;;;;;;5006870;28;20208;-70
2024/01/15 01:05:38;;;;;;;0.00;0.00;;;2.50;88.70;;;;;;5011054;28;20060;-70
2024/01/15 01:08:04;;;;;;;0.10;0.10;;;2.40;88.90;;;;;;4990906;28;20047;-70
2024/01/15 01:10:30;;;;;;;0.00;0.00;;;2.20;89.40;;;;;;4989808;28;20133;-69
2024/01/15 01:12:56;;;;;;;0.00;0.00;;;2.20;89.70;;;;;;4992858;28;20080;-69
2024/01/15 01:15:21;;;;;;;0.10;0.10;;;2.20;89.70;;;;;;5010445;28;20049;-70
2024/01/15 01:17:47;;;;;;;0.00;0.00;;;2.30;89.50;;;;;;4993296;28;20157;-69
2024/01/15 01:20:15;;;;;;;1.08;1.08;;;2.40;89.00;;;;;;4989381;28;20046;-70
2024/01/15 01:22:41;;;;;;;0.00;0.00;;;2.40;88.80;;;;;;4975748;28;20645;-70
2024/01/15 01:25:07;;;;;;;0.03;0.03;;;2.30;88.60;;;;;;4990893;28;20050;-70
2024/01/15 01:27:33;;;;;;;0.00;0.00;;;2.40;88.70;;;;;;4990289;28;20050;-70
2024/01/15 01:29:58;;;;;;;0.30;0.30;;;2.50;88.70;;;;;;5004757;28;20041;-70
2024/01/15 01:32:24;;;;;;;0.00;0.00;;;2.50;88.50;;;;;;4971312;28;20059;-70
2024/01/15 01:34:50;;;;;;;0.00;0.00;;;2.70;88.00;;;;;;4983283;28;20034;-70
2024/01/15 01:37:15;;;;;;;0.10;0.10;;;2.60;87.90;;;;;;4990456;28;20064;-70
2024/01/15 01:39:42;;;;;;;0.00;0.00;;;2.50;88.00;;;;;;4990359;28;20424;-70
2024/01/15 01:42:07;;;;;;;0.00;0.00;;;2.60;88.20;;;;;;5003898;28;20037;-70
2024/01/15 01:44:33;;;;;;;0.00;0.00;;;2.70;88.60;;;;;;5008520;28;20060;-70
2024/01/15 01:47:00;;;;;;;0.00;0.00;;;2.70;88.60;;;;;;4990470;28;20129;-70
2024/01/15 01:49:27;;;;;;;0.00;0.00;;;2.70;88.30;;;;;;4990145;28;20104;-70
2024/01/15 01:51:55;;;;;;;0.00;0.00;;;2.70;87.60;;;;;;4989526;28;20034;-70
2024/01/15 01:54:21;;;;;;;0.00;0.00;;;2.70;87.50;;;;;;4990604;28;20586;-70
2024/01/15 01:56:48;;;;;;;2.40;1.50;;;2.60;87.90;;;;;;4997040;28;20124;-70
2024/01/15 01:59:14;;;;;;;0.10;0.10;;;2.60;87.80;;;;;;5002704;28;20073;-70
2024/01/15 02:01:41;;;;;;;0.00;0.00;;;2.60;87.80;;;;;;4990322;28;20042;-70
2024/01/15 02:04:08;;;;;;;0.17;0.17;;;2.60;87.80;;;;;;4989991;28;20054;-70
2024/01/15 02:06:34;;;;;;;0.55;0.55;;;2.60;87.70;;;;;;4989743;28;20117;-70
2024/01/15 02:09:00;;;;;;;0.00;0.00;;;2.60;87.40;;;;;;4989660;28;20460;-70
2024/01/15 02:11:26;;;;;;;0.10;0.10;;;2.40;87.30;;;;;;4989709;28;20821;-70
2024/01/15 02:13:52;;;;;;;0.00;0.00;;;2.40;87.30;;;;;;4989996;28;20108;-70
2024/01/15 02:16:17;;;;;;;0.10;0.10;;;2.60;87.20;;;;;;4989916;28;20046;-70
2024/01/15 02:18:46;;;;;;;8.48;2.38;;;2.50;87.10;;;;;;4989018;28;20046;-70
2024/01/15 02:21:12;;;;;;;0.00;0.00;;;2.60;87.20;;;;;;4989579;28;20050;-69
2024/01/15 02:23:38;;;;;;;0.00;0.00;;;2.70;87.20;;;;;;4988480;28;20113;-70
2024/01/15 02:26:05;;;;;;;0.00;0.00;;;2.70;87.40;;;;;;4988560;28;20077;-69
2024/01/15 02:28:33;;;;;;;0.10;0.10;;;2.70;87.90;;;;;;4989337;28;20072;-70
2024/01/15 02:30:58;;;;;;;0.10;0.10;;;2.70;88.30;;;;;;4990373;28;20039;-70
2024/01/15 02:33:24;;;;;;;0.00;0.00;;;2.70;88.40;;;;;;4998028;28;20511;-70
2024/01/15 02:35:50;;;;;;;0.00;0.00;;;2.70;88.60;;;;;;4988287;28;20066;-69
2024/01/15 02:38:16;;;;;;;0.73;0.73;;;2.70;88.70;;;;;;4988410;28;20046;-70
2024/01/15 02:40:44;;;;;;;0.00;0.00;;;2.70;88.60;;;;;;4990050;28;20053;-70
2024/01/15 02:43:10;;;;;;;0.00;0.00;;;2.70;88.40;;;;;;4990898;28;20045;-69
2024/01/15 02:45:36;;;;;;;0.00;0.00;;;2.70;88.10;;;;;;4988715;28;20042;-70
2024/01/15 02:48:01;;;;;;;0.00;0.00;;;2.70;87.80;;;;;;4989192;28;20511;-70
2024/01/15 02:50:27;;;;;;;0.00;0.00;;;2.90;87.60;;;;;;4989098;28;20034;-70
2024/01/15 02:52:53;;;;;;;0.10;0.10;;;3.00;87.30;;;;;;4988543;28;20173;-70
2024/01/15 02:55:18;;;;;;;0.00;0.00;;;2.90;86.80;;;;;;4988141;28;20380;-69
2024/01/15 02:57:44;;;;;;;0.00;0.00;;;2.90;86.40;;;;;;4986503;28;20132;-69
2024/01/15 03:00:11;;;;;;;0.00;0.00;;;3.00;86.20;;;;;;4988068;28;20054;-69
2024/01/15 03:02:40;;;;;;;0.00;0.00;;;3.00;86.20;;;;;;4989015;28;20042;-70
2024/01/15 03:05:10;;;;;;;0.00;0.00;;;3.00;85.80;;;;;;4997198;28;20042;-70
2024/01/15 03:07:35;;;;;;;0.00;0.00;;;3.00;85.50;;;;;;4988643;28;20093;-70
2024/01/15 03:10:01;;;;;;;0.00;0.00;;;2.90;84.80;;;;;;4988806;28;20046;-70
2024/01/15 03:12:27;;;;;;;0.00;0.00;;;2.90;84.80;;;;;;4988723;28;20042;-70
2024/01/15 03:14:53;;;;;;;0.00;0.00;;;2.90;85.00;;;;;;4988186;28;20050;-69
2024/01/15 03:17:19;;;;;;;0.00;0.00;;;2.90;85.20;;;;;;4988258;28;20180;-70
2024/01/15 03:19:44;;;;;;;0.10;0.10;;;2.90;85.60;;;;;;4970865;28;20054;-70
2024/01/15 03:22:10;;;;;;;0.10;0.10;;;2.80;85.80;;;;;;4986589;28;20570;-70
2024/01/15 03:24:36;;;;;;;0.10;0.10;;;2.70;86.10;;;;;;4988857;28;20082;-70
2024/01/15 03:27:02;;;;;;;0.05;0.05;;;2.70;86.60;;;;;;4986251;28;20053;-70
2024/01/15 03:29:28;;;;;;;0.00;0.00;;;2.60;86.80;;;;;;4993800;28;20117;-70
2024/01/15 03:31:53;;;;;;;0.00;0.00;;;2.60;86.90;;;;;;4988620;28;20050;-70
2024/01/15 03:34:19;;;;;;;0.00;0.00;;;2.60;87.10;;;;;;4988527;28;20081;-70
2024/01/15 03:36:45;;;;;;;0.00;0.00;;;2.60;87.00;;;;;;4988344;28;20617;-70
2024/01/15 03:39:11;;;;;;;0.00;0.00;;;2.70;86.80;;;;;;4972937;28;20097;-70
2024/01/15 03:41:37;;;;;;;0.10;0.10;;;2.80;86.50;;;;;;5000353;28;20072;-70
2024/01/15 03:44:02;;;;;;;0.68;0.68;;;2.80;85.90;;;;;;5002500;28;20057;-70
2024/01/15 03:46:28;;;;;;;0.08;0.08;;;3.00;85.60;;;;;;4988092;28;20050;-69
2024/01/15 03:48:54;;;;;;;0.00;0.00;;;3.10;85.20;;;;;;4987670;28;20074;-69
2024/01/15 03:51:20;;;;;;;0.00;0.00;;;3.30;85.10;;;;;;4987866;28;20565;-70
2024/01/15 03:53:46;;;;;;;0.00;0.00;;;3.20;84.90;;;;;;4987910;28;20061;-70
2024/01/15 03:56:12;;;;;;;0.00;0.00;;;3.10;85.30;;;;;;4986604;28;20861;-70
2024/01/15 03:58:37;;;;;;;4.40;3.13;;;3.10;85.50;;;;;;4988108;28;20052;-70
2024/01/15 04:01:03;;;;;;;0.00;0.00;;;3.10;85.50;;;;;;4988028;28;20050;-70
2024/01/15 04:03:29;;;;;;;0.10;0.10;;;3.00;85.40;;;;;;4987105;28;20050;-69
2024/01/15 04:05:54;;;;;;;0.00;0.00;;;2.90;85.60;;;;;;4975317;28;20050;-70
2024/01/15 04:08:20;;;;;;;0.00;0.00;;;2.90;85.90;;;;;;4987836;28;20061;-70
2024/01/15 04:10:46;;;;;;;0.00;0.00;;;2.80;86.10;;;;;;4987824;28;20100;-70
2024/01/15 04:13:12;;;;;;;0.00;0.00;;;2.70;86.20;;;;;;4998767;28;20148;-70
2024/01/15 04:15:37;;;;;;;0.00;0.00;;;2.70;86.40;;;;;;5002014;28;20463;-70
2024/01/15 04:18:03;;;;;;;0.05;0.05;;;2.60;86.50;;;;;;4994409;28;20056;-70
2024/01/15 04:20:29;;;;;;;0.00;0.00;;;2.60;87.00;;;;;;4987568;28;20050;-70
2024/01/15 04:22:55;;;;;;;0.10;0.10;;;2.50;87.20;;;;;;4986787;28;20060;-70
2024/01/15 04:25:21;;;;;;;0.00;0.00;;;2.50;87.50;;;;;;4986208;28;20046;-70
2024/01/15 04:27:46;;;;;;;0.00;0.00;;;2.40;87.80;;;;;;4987762;28;20136;-70
2024/01/15 04:30:13;;;;;;;0.00;0.00;;;2.30;88.30;;;;;;4986414;28;20043;-70
2024/01/15 04:32:38;;;;;;;0.10;0.10;;;2.30;88.40;;;;;;5004538;28;20046;-70
2024/01/15 04:35:04;;;;;;;0.00;0.00;;;2.40;88.40;;;;;;5001454;28;20038;-70
2024/01/15 04:37:30;;;;;;;0.20;0.20;;;2.40;88.60;;;;;;4986876;28;20084;-70
2024/01/15 04:39:58;;;;;;;0.00;0.00;;;2.30;88.80;;;;;;4990857;28;20129;-70
2024/01/15 04:42:24;;;;;;;0.10;0.10;;;2.30;88.80;;;;;;4990609;28;20054;-70
2024/01/15 04:44:49;;;;;;;0.00;0.00;;;2.40;89.00;;;;;;4991239;28;20038;-70
2024/01/15 04:47:15;;;;;;;30.15;2.55;;;2.40;89.10;;;;;;4991861;28;20038;-70
2024/01/15 04:49:41;;;;;;;0.10;0.10;;;2.40;88.90;;;;;;4992605;28;20081;-70
2024/01/15 04:52:06;;;;;;;0.00;0.00;;;2.30;88.90;;;;;;4991040;28;20046;-70
2024/01/15 04:54:32;;;;;;;0.10;0.10;;;2.30;89.00;;;;;;4992343;28;20098;-70
2024/01/15 04:56:58;;;;;;;0.00;0.00;;;2.30;88.90;;;;;;4991831;28;20053;-70
2024/01/15 04:59:23;;;;;;;0.00;0.00;;;2.20;88.90;;;;;;4990997;28;20042;-70
2024/01/15 05:01:49;;;;;;;0.10;0.10;;;2.20;89.00;;;;;;4991420;28;20872;-70
2024/01/15 05:04:15;;;;;;;0.03;0.03;;;2.10;89.00;;;;;;4991995;28;20054;-70
2024/01/15 05:06:41;;;;;;;0.00;0.00;;;2.10;89.00;;;;;;4991813;28;20126;-70
2024/01/15 05:09:06;;;;;;;0.10;0.10;;;2.10;89.10;;;;;;4985188;28;20061;-70
2024/01/15 05:11:32;;;;;;;0.00;0.00;;;2.10;89.10;;;;;;4985172;28;20089;-70
2024/01/15 05:13:58;;;;;;;0.10;0.10;;;2.20;89.00;;;;;;4991730;28;20047;-70
2024/01/15 05:16:24;;;;;;;0.00;0.00;;;2.20;89.00;;;;;;4991439;28;20098;-70
2024/01/15 05:18:50;;;;;;;0.00;0.00;;;2.20;89.00;;;;;;4990546;28;20050;-70
2024/01/15 05:21:16;;;;;;;0.00;0.00;;;2.20;88.90;;;;;;5007885;28;20046;-70
2024/01/15 05:23:41;;;;;;;0.03;0.03;;;2.20;88.80;;;;;;4999429;28;20504;-70
2024/01/15 05:26:08;;;;;;;3.50;0.65;;;2.10;88.40;;;;;;4981797;28;20058;-70
2024/01/15 05:28:35;;;;;;;0.00;0.00;;;2.10;88.40;;;;;;4989279;28;20871;-70
2024/01/15 05:31:01;;;;;;;0.43;0.43;;;2.10;88.30;;;;;;4991817;28;20058;-70
2024/01/15 05:33:26;;;;;;;0.10;0.10;;;2.10;88.90;;;;;;4990403;28;20415;-70
2024/01/15 05:35:53;;;;;;;0.10;0.10;;;2.20;88.90;;;;;;4990951;28;20046;-70
2024/01/15 05:38:19;;;;;;;0.00;0.00;;;2.30;89.30;;;;;;4991051;28;20054;-70
2024/01/15 05:40:45;;;;;;;0.00;0.00;;;2.30;89.30;;;;;;4990477;28;20034;-70
2024/01/15 05:43:10;;;;;;;0.10;0.10;;;2.30;89.40;;;;;;4990508;28;20504;-70
2024/01/15 05:45:38;;;;;;;0.00;0.00;;;2.30;89.30;;;;;;4991346;28;20536;-70
2024/01/15 05:48:04;;;;;;;0.10;0.10;;;2.30;88.70;;;;;;4989189;28;20038;-70
2024/01/15 05:50:30;;;;;;;0.00;0.00;;;2.30;88.30;;;;;;5007511;28;20157;-70
2024/01/15 05:52:55;;;;;;;0.00;0.00;;;2.30;88.10;;;;;;5010517;28;20585;-70
2024/01/15 05:55:21;;;;;;;0.00;0.00;;;2.30;87.60;;;;;;5011046;28;20046;-70
2024/01/15 05:57:47;;;;;;;0.00;0.00;;;2.20;87.40;;;;;;4994386;28;20053;-70
2024/01/15 06:00:13;;;;;;;0.00;0.00;;;2.30;87.00;;;;;;4989802;28;20161;-70
2024/01/15 06:02:39;;;;;;;0.00;0.00;;;2.30;87.20;;;;;;4986350;28;20124;-70
2024/01/15 06:05:06;;;;;;;0.00;0.00;;;2.20;87.10;;;;;;4990462;28;20534;-70
2024/01/15 06:07:33;;;;;;;0.00;0.00;;;2.20;87.10;;;;;;4990497;28;20081;-70
2024/01/15 06:09:59;;;;;;;0.00;0.00;;;2.30;87.10;;;;;;4990609;28;20046;-70
2024/01/15 06:12:24;;;;;;;0.52;0.52;;;2.30;86.80;;;;;;4989932;28;20058;-70
2024/01/15 06:14:50;;;;;;;0.00;0.00;;;2.40;86.50;;;;;;4990734;28;20053;-70
2024/01/15 06:17:17;;;;;;;0.00;0.00;;;2.50;86.10;;;;;;4989982;28;20498;-69
2024/01/15 06:19:42;;;;;;;0.00;0.00;;;2.60;85.90;;;;;;4988981;28;20053;-70
2024/01/15 06:22:08;;;;;;;0.00;0.00;;;2.60;85.80;;;;;;4990421;28;20034;-69
2024/01/15 06:24:34;;;;;;;0.00;0.00;;;2.50;85.40;;;;;;4990031;28;20050;-69
2024/01/15 06:26:59;;;;;;;0.10;0.10;;;2.50;85.70;;;;;;4987982;28;20459;-70
2024/01/15 06:29:27;;;;;;;0.10;0.10;;;2.50;85.80;;;;;;4976505;28;20042;-71
2024/01/15 06:31:52;;;;;;;0.00;0.00;;;2.40;85.50;;;;;;4978872;28;20090;-68
2024/01/15 06:34:18;;;;;;;0.10;0.10;;;2.20;85.60;;;;;;4989300;28;20534;-68
2024/01/15 06:36:44;;;;;;;0.00;0.00;;;2.30;85.80;;;;;;4990621;28;20070;-68
2024/01/15 06:39:10;;;;;;;0.00;0.00;;;2.30;85.80;;;;;;4991082;28;20045;-68
2024/01/15 06:41:43;;;;;;;0.00;0.00;;;2.20;85.80;;;;;;4987565;28;20495;-68
2024/01/15 06:44:11;;;;;;;0.08;0.08;;;2.20;86.10;;;;;;4990029;28;20117;-68
2024/01/15 06:46:41;;;;;;;0.10;0.10;;;2.10;86.20;;;;;;4986498;28;20042;-67
2024/01/15 06:49:07;;;;;;;0.00;0.00;;;2.20;86.20;;;;;;4990780;28;20046;-68
2024/01/15 06:51:32;;;;;;;0.00;0.00;;;2.20;86.50;;;;;;4979959;28;20049;-68
2024/01/15 06:53:58;;;;;;;0.10;0.10;;;2.20;86.60;;;;;;4986040;28;20038;-68
2024/01/15 06:56:24;;;;;;;0.10;0.10;;;2.10;86.70;;;;;;4991997;28;20809;-69
2024/01/15 06:58:50;;;;;;;0.03;0.03;;;2.10;87.30;;;;;;4991105;28;20033;-68
2024/01/15 07:01:15;;;;;;;0.00;0.00;;;2.00;87.40;;;;;;5000250;28;20045;-68
2024/01/15 07:03:41;;;;;;;0.00;0.00;;;1.90;87.70;;;;;;4993460;28;20042;-67
2024/01/15 07:06:07;;;;;;;0.10;0.10;;;1.90;87.90;;;;;;4998884;28;20077;-68
2024/01/15 07:08:33;;;;;;;0.10;0.10;;;1.90;88.00;;;;;;4994370;28;20061;-68
2024/01/15 07:10:59;;;;;;;0.00;0.00;;;1.90;88.30;;;;;;4995491;28;20042;-68
2024/01/15 07:13:25;;;;;;;0.03;0.03;;;1.90;88.30;;;;;;5005358;28;20412;-69
2024/01/15 07:15:50;;;;;;;0.00;0.00;;;2.00;88.20;;;;;;4995779;28;20096;-69
2024/01/15 07:18:16;;;;;;;0.10;0.10;;;2.00;87.90;;;;;;4998089;28;20100;-68
2024/01/15 07:20:42;;;;;;;0.10;0.10;;;2.00;87.70;;;;;;4987297;28;20042;-68
2024/01/15 07:23:08;;;;;;;0.00;0.00;;;2.20;87.70;;;;;;4987326;28;20482;-68
2024/01/15 07:25:34;;;;;;;0.20;0.20;;;2.10;87.10;;;;;;4987993;28;20077;-68
2024/01/15 07:28:00;;;;;;;0.00;0.00;;;2.10;86.80;;;;;;4987590;28;20058;-68
2024/01/15 07:30:26;;;;;;;0.00;0.00;;;2.10;86.60;;;;;;4989598;28;20042;-67
2024/01/15 07:32:52;;;;;;;0.85;0.85;;;2.10;86.30;;;;;;4988677;28;20050;-68
2024/01/15 07:35:18;;;;;;;0.03;0.03;;;2.10;86.30;;;;;;4989345;28;20046;-69
2024/01/15 07:37:44;;;;;;;0.00;0.00;;;2.20;86.00;;;;;;4997625;28;20037;-69
2024/01/15 07:40:10;;;;;;;0.00;0.00;;;2.20;85.60;;;;;;5007582;28;20129;-69
2024/01/15 07:42:36;;;;;;;0.00;0.00;;;2.30;85.70;;;;;;4999107;28;20158;-69
2024/01/15 07:45:02;;;;;;;0.08;0.08;;;2.30;85.90;;;;;;4987726;28;20054;-68
2024/01/15 07:47:28;;;;;;;0.10;0.10;;;2.40;86.00;;;;;;4988672;28;20411;-68
2024/01/15 07:49:54;;;;;;;0.00;0.00;;;2.40;85.90;;;;;;4988175;28;20058;-68
2024/01/15 07:52:20;;;;;;;0.10;0.10;;;2.40;85.90;;;;;;4981762;28;20121;-68
2024/01/15 07:54:45;;;;;;;0.10;0.10;;;2.40;86.00;;;;;;4987081;28;21941;-68
2024/01/15 07:57:11;;;;;;;0.17;0.17;;;2.40;85.90;;;;;;4987523;28;20869;-68
2024/01/15 07:59:37;;;;;;;3.05;2.80;;;2.20;86.10;;;;;;4986917;28;20053;-68
2024/01/15 08:02:03;;;;;;;0.00;0.00;;;2.20;86.00;;;;;;4987246;28;20045;-68
2024/01/15 08:04:28;;;;;;;0.40;0.32;;;2.10;86.10;;;;;;4986162;28;20427;-68
2024/01/15 08:06:54;;;;;;;0.00;0.00;;;2.00;86.10;;;;;;4986161;28;20046;-68
2024/01/15 08:09:20;;;;;;;0.10;0.10;;;2.00;86.20;;;;;;4993116;28;20476;-68
2024/01/15 08:11:51;;;;;;;0.20;0.20;;;2.00;86.20;;;;;;4985535;28;20049;-68
2024/01/15 08:14:17;;;;;;;0.00;0.00;;;2.00;86.50;;;;;;4986741;28;20077;-71
2024/01/15 08:16:43;;;;;;;0.03;0.03;;;1.90;86.70;;;;;;4988269;28;20419;-71
2024/01/15 08:19:09;;;;;;;0.00;0.00;;;1.90;86.80;;;;;;4983749;28;20046;-71
2024/01/15 08:21:35;;;;;;;0.10;0.10;;;1.90;87.10;;;;;;4984382;28;20046;-71
2024/01/15 08:24:04;;;;;;;0.00;0.00;;;1.90;87.20;;;;;;4995598;28;20491;-70
2024/01/15 08:26:30;;;;;;;0.10;0.10;;;1.90;87.50;;;;;;4994113;28;20150;-70
2024/01/15 08:28:56;;;;;;;0.10;0.10;;;1.90;87.80;;;;;;4988231;28;20078;-70
2024/01/15 08:31:22;;;;;;;0.00;0.00;;;1.90;88.00;;;;;;4988330;28;20399;-70
2024/01/15 08:33:47;;;;;;;0.00;0.00;;;2.00;87.90;;;;;;4988372;28;20050;-70
2024/01/15 08:36:13;;;;;;;0.13;0.13;;;2.00;88.00;;;;;;4987906;28;20473;-70
2024/01/15 08:38:39;;;;;;;0.10;0.10;;;2.10;87.90;;;;;;4987815;28;20042;-70
2024/01/15 08:41:05;;;;;;;0.00;0.00;;;2.00;87.90;;;;;;4987806;28;20054;-70
2024/01/15 08:43:31;;;;;;;0.00;0.00;;;2.10;87.90;;;;;;4987200;28;20081;-70
2024/01/15 08:45:57;;;;;;;0.10;0.10;;;2.10;87.80;;;;;;4986117;28;20034;-70
2024/01/15 08:48:23;;;;;;;0.00;0.00;;;2.10;87.20;;;;;;4986421;28;20050;-70
2024/01/15 08:50:49;;;;;;;0.10;0.10;;;2.10;87.20;;;;;;4985233;28;20050;-70
2024/01/15 08:53:14;;;;;;;0.52;0.52;;;2.10;86.80;;;;;;4972793;28;20039;-70
2024/01/15 08:55:44;;;;;;;0.10;0.10;;;2.20;86.30;;;;;;4967726;28;20089;-71
2024/01/15 08:58:10;;;;;;;0.00;0.00;;;2.20;85.70;;;;;;4984450;28;20136;-71
2024/01/15 09:00:36;;;;;;;0.10;0.10;;;2.40;85.60;;;;;;4986132;28;20896;-70
2024/01/15 09:03:02;;;;;;;0.10;0.10;;;2.50;85.60;;;;;;4978569;28;20070;-71
2024/01/15 09:05:28;;;;;;;0.00;0.00;;;2.60;85.50;;;;;;4987166;28;20038;-71
2024/01/15 09:07:54;;;;;;;0.00;0.00;;;2.60;84.90;;;;;;4984784;28;20057;-70
2024/01/15 09:10:20;;;;;;;0.00;0.00;;;2.60;85.00;;;;;;4985729;28;20046;-71
2024/01/15 09:12:46;;;;;;;0.00;0.00;;;2.60;84.60;;;;;;4992593;28;20051;-71
2024/01/15 09:15:12;;;;;;;0.10;0.10;;;2.70;84.20;;;;;;4986683;28;20053;-71
2024/01/15 09:17:38;;;;;;;0.00;0.00;;;2.80;84.40;;;;;;4986517;28;20043;-71
2024/01/15 09:20:05;;;;;;;0.00;0.00;;;2.90;84.40;;;;;;4987070;28;20456;-71
2024/01/15 09:22:31;;;;;;;0.55;0.55;;;2.80;84.50;;;;;;4986647;28;20420;-71
2024/01/15 09:24:57;;;;;;;0.10;0.10;;;2.80;84.70;;;;;;4987467;28;20050;-71
2024/01/15 09:27:23;;;;;;;0.00;0.00;;;2.80;85.10;;;;;;4989922;28;20046;-71
2024/01/15 09:29:49;;;;;;;0.10;0.10;;;2.70;85.10;;;;;;4989987;28;20043;-70
2024/01/15 09:32:15;;;;;;;0.00;0.00;;;2.70;85.30;;;;;;4988926;28;20046;-71
2024/01/15 09:34:41;;;;;;;0.10;0.10;;;2.70;85.40;;;;;;4987990;28;20419;-71
2024/01/15 09:37:07;;;;;;;0.00;0.00;;;2.70;85.30;;;;;;4989443;28;20034;-71
2024/01/15 09:39:33;;;;;;;0.10;0.10;;;2.90;85.20;;;;;;4990078;28;20074;-71
2024/01/15 09:41:59;;;;;;;0.10;0.10;;;2.90;83.70;;;;;;4989001;28;20504;-71
2024/01/15 09:44:26;;;;;;;0.00;0.00;;;2.80;83.00;;;;;;4988434;28;20086;-71
2024/01/15 09:46:53;;;;;;;0.10;0.10;;;2.70;82.70;;;;;;4994048;28;20520;-71
2024/01/15 09:49:19;;;;;;;0.00;0.00;;;2.70;83.00;;;;;;4988696;28;20101;-70
2024/01/15 09:51:47;;;;;;;0.10;0.10;;;2.70;83.10;;;;;;4988974;28;20380;-70
2024/01/15 09:54:15;;;;;;;0.10;0.10;;;2.70;83.30;;;;;;4988727;28;20053;-69
2024/01/15 09:56:40;;;;;;;4.45;2.05;;;2.90;84.00;;;;;;4990068;28;20042;-69
2024/01/15 09:59:06;;;;;;;0.10;0.10;;;3.10;84.10;;;;;;4990080;28;20089;-69
2024/01/15 10:01:34;;;;;;;0.00;0.00;;;3.10;84.30;;;;;;4988181;28;20136;-69
2024/01/15 10:03:59;;;;;;;0.00;0.00;;;3.30;83.60;;;;;;4998667;28;20046;-70
2024/01/15 10:06:30;;;;;;;0.00;0.00;;;3.40;83.20;;;;;;4990027;28;20058;-70
2024/01/15 10:08:58;;;;;;;0.00;0.00;;;3.30;83.40;;;;;;5003452;28;20047;-70
2024/01/15 10:11:24;;;;;;;0.00;0.00;;;3.40;83.20;;;;;;4988034;28;20496;-70
2024/01/15 10:13:53;;;;;;;0.00;0.00;;;3.30;83.70;;;;;;4990406;28;20088;-69
2024/01/15 10:16:22;;;;;;;0.00;0.00;;;3.20;84.30;;;;;;4989915;28;20125;-69
2024/01/15 10:18:48;;;;;;;0.05;0.05;;;3.10;85.20;;;;;;4989940;28;20050;-70
2024/01/15 10:21:15;;;;;;;0.10;0.10;;;3.10;86.00;;;;;;4988010;28;20101;-70
2024/01/15 10:23:41;;;;;;;0.00;0.00;;;3.00;86.60;;;;;;4987838;28;20101;-70
2024/01/15 10:26:07;;;;;;;0.00;0.00;;;2.90;87.00;;;;;;4990244;28;20048;-69
2024/01/15 10:28:33;;;;;;;0.00;0.00;;;2.70;87.30;;;;;;4990110;28;20081;-71
2024/01/15 10:31:00;;;;;;;0.00;0.00;;;2.50;88.00;;;;;;4989315;28;20074;-70
2024/01/15 10:33:27;;;;;;;0.10;0.10;;;2.50;88.30;;;;;;4997084;28;20042;-70
2024/01/15 10:36:00;;;;;;;0.00;0.00;;;2.40;88.50;;;;;;4988300;28;20443;-71
2024/01/15 10:38:26;;;;;;;0.00;0.00;;;2.30;89.50;;;;;;4987437;28;20085;-69
2024/01/15 10:40:53;;;;;;;0.10;0.10;;;2.30;89.70;;;;;;4987472;28;20476;-70
2024/01/15 10:43:19;;;;;;;0.10;0.10;;;2.30;89.80;;;;;;4982281;28;20054;-70
2024/01/15 10:45:46;;;;;;;0.00;0.00;;;2.30;89.80;;;;;;4982998;28;20053;-69
2024/01/15 10:48:12;;;;;;;0.00;0.00;;;2.40;89.80;;;;;;4987615;28;20031;-69
2024/01/15 10:50:38;;;;;;;0.00;0.00;;;2.40;89.70;;;;;;4981847;28;20118;-69
2024/01/15 10:53:04;;;;;;;0.15;0.15;;;2.50;89.70;;;;;;4977953;28;20208;-69
2024/01/15 10:55:32;;;;;;;0.00;0.00;;;2.50;89.60;;;;;;4980175;28;20050;-69
2024/01/15 10:57:58;;;;;;;0.00;0.00;;;2.50;89.60;;;;;;4972006;28;20050;-69
2024/01/15 11:00:25;;;;;;;0.00;0.00;;;2.50;89.70;;;;;;4988787;28;20053;-69
2024/01/15 11:02:51;;;;;;;0.00;0.00;;;2.70;89.20;;;;;;4994279;28;20047;-69
2024/01/15 11:05:21;;;;;;;0.00;0.00;;;2.70;89.00;;;;;;4985559;28;20105;-69
2024/01/15 11:07:48;;;;;;;0.00;0.00;;;2.80;88.00;;;;;;4997981;28;20112;-69
2024/01/15 11:10:49;;;;;;;0.00;0.00;;;3.00;86.80;;;;;;4987455;28;20054;-69
2024/01/15 11:13:20;;;;;;;0.00;0.00;;;3.10;85.30;;;;;;4988025;28;20121;-70
2024/01/15 11:16:03;;;;;;;0.00;0.00;;;3.20;84.50;;;;;;4988721;28;20047;-69
2024/01/15 11:18:50;;;;;;;0.00;0.00;;;3.20;84.90;;;;;;4979236;28;20120;-70
2024/01/15 11:21:16;;;;;;;0.10;0.10;;;3.20;85.20;;;;;;4989192;28;20046;-70
2024/01/15 11:23:46;;;;;;;0.00;0.00;;;3.10;85.60;;;;;;4997296;28;20514;-70
2024/01/15 11:26:35;;;;;;;0.63;0.63;;;2.90;86.50;;;;;;4976068;28;20047;-70
2024/01/15 11:29:27;;;;;;;0.00;0.00;;;2.80;86.80;;;;;;4969503;28;20501;-69
2024/01/15 11:31:58;;;;;;;0.00;0.00;;;2.60;87.50;;;;;;4981465;28;20165;-68
2024/01/15 11:34:49;;;;;;;0.00;0.00;;;2.50;87.80;;;;;;4995431;28;20403;-70
2024/01/15 11:37:16;;;;;;;0.00;0.00;;;2.50;87.80;;;;;;5006890;28;20100;-68
2024/01/15 11:39:43;;;;;;;0.00;0.00;;;2.50;87.60;;;;;;5006426;28;20049;-68
2024/01/15 11:42:11;;;;;;;0.00;0.00;;;2.40;87.30;;;;;;4988994;28;20417;-69
2024/01/15 11:44:38;;;;;;;0.10;0.10;;;2.20;87.70;;;;;;4987730;28;20053;-69
2024/01/15 11:47:05;;;;;;;0.00;0.00;;;2.30;87.60;;;;;;5004310;28;20053;-69
2024/01/15 11:50:02;;;;;;;0.00;0.00;;;2.10;87.50;;;;;;5008020;28;20061;-69
2024/01/15 11:52:38;;;;;;;0.10;0.10;;;2.20;87.80;;;;;;5006821;28;20050;-69
2024/01/15 11:55:11;;;;;;;0.10;0.10;;;2.10;88.10;;;;;;5007566;28;20824;-68
2024/01/15 11:57:39;;;;;;;0.00;0.00;;;2.00;88.40;;;;;;4995341;28;20089;-69
2024/01/15 12:00:09;;;;;;;0.00;0.00;;;2.00;88.60;;;;;;4989021;28;20038;-69
2024/01/15 12:02:35;;;;;;;0.00;0.00;;;2.00;88.70;;;;;;4994665;28;20042;-69
2024/01/15 12:05:01;;;;;;;0.10;0.10;;;2.10;88.90;;;;;;5006466;28;20382;-68
2024/01/15 12:07:27;;;;;;;0.00;0.00;;;2.10;89.10;;;;;;5008623;28;20469;-70
2024/01/15 12:09:53;;;;;;;0.10;0.10;;;2.10;89.10;;;;;;5007142;28;20132;-70
2024/01/15 12:12:48;;;;;;;0.10;0.10;;;2.00;89.30;;;;;;5002466;28;20555;-70
2024/01/15 12:15:15;;;;;;;0.52;0.52;;;2.10;89.40;;;;;;4987692;28;20533;-70
2024/01/15 12:17:40;;;;;;;0.10;0.10;;;2.20;89.40;;;;;;4987345;28;20419;-70
2024/01/15 12:20:07;;;;;;;0.10;0.10;;;2.20;89.40;;;;;;4988062;28;20046;-70
2024/01/15 12:22:33;;;;;;;0.00;0.00;;;2.30;89.50;;;;;;4986820;28;20062;-70
2024/01/15 12:24:59;;;;;;;0.00;0.00;;;2.30;89.40;;;;;;4988389;28;20046;-70
2024/01/15 12:27:25;;;;;;;0.05;0.05;;;2.40;89.40;;;;;;4966708;28;20393;-70
2024/01/15 12:29:53;;;;;;;0.00;0.00;;;2.40;89.30;;;;;;4985636;28;20046;-70
2024/01/15 12:32:20;;;;;;;0.00;0.00;;;2.50;89.20;;;;;;4987641;28;20166;-70
2024/01/15 12:34:49;;;;;;;0.00;0.00;;;2.50;89.30;;;;;;4993784;28;20057;-70
2024/01/15 12:37:15;;;;;;;0.80;0.80;;;2.70;89.20;;;;;;4993162;28;20735;-70
2024/01/15 12:39:44;;;;;;;0.10;0.10;;;2.70;88.80;;;;;;4987484;28;20078;-70
2024/01/15 12:42:10;;;;;;;0.00;0.00;;;2.70;88.80;;;;;;4987897;28;20495;-72
2024/01/15 12:44:37;;;;;;;0.00;0.00;;;2.70;88.80;;;;;;4989837;28;20069;-70
2024/01/15 12:47:04;;;;;;;0.00;0.00;;;2.70;88.80;;;;;;4991944;28;20050;-70
2024/01/15 12:49:30;;;;;;;0.00;0.00;;;2.80;88.70;;;;;;4990882;28;20708;-70
2024/01/15 12:51:59;;;;;;;1.55;1.55;;;2.80;88.90;;;;;;4984277;28;20046;-70
2024/01/15 12:54:26;;;;;;;0.10;0.10;;;3.00;88.70;;;;;;4988113;28;20101;-70
2024/01/15 12:56:51;;;;;;;0.10;0.10;;;2.90;88.40;;;;;;4968603;28;20872;-70